Time,TemperatureF,DewpointF,PressureIn,WindDirection,WindDirectionDegrees,WindSpeedMPH,WindSpeedGustMPH,Humidity,HourlyPrecipIn,Conditions,Clouds,dailyrainin,SoftwareType,DateUTC
2013-07-21 00:01:00,69.0,68.0,29.89,WNW,294,0.0,0.0,96,0.00,,,0.24,,2013-07-21 04:01:00,
2013-07-21 00:11:00,69.0,68.0,29.90,WNW,294,0.0,0.0,96,0.00,,,0.24,,2013-07-21 04:11:00,
2013-07-21 00:22:00,69.0,68.0,29.90,WNW,294,0.0,0.0,96,0.00,,,0.24,,2013-07-21 04:22:00,
2013-07-21 00:32:00,69.0,68.0,29.90,WNW,294,0.0,0.0,96,0.00,,,0.24,,2013-07-21 04:32:00,
2013-07-21 00:43:00,68.0,67.0,29.89,WNW,293,0.0,0.0,96,0.00,,,0.24,,2013-07-21 04:43:00,
2013-07-21 00:53:00,68.0,67.0,29.89,WNW,293,0.0,0.0,96,0.00,,,0.24,,2013-07-21 04:53:00,
2013-07-21 01:02:00,68.0,67.0,29.90,WNW,292,0.0,0.0,97,0.00,,,0.24,,2013-07-21 05:02:00,
2013-07-21 01:11:00,68.0,67.0,29.90,WNW,292,0.0,0.0,97,0.00,,,0.24,,2013-07-21 05:11:00,
2013-07-21 01:22:00,68.0,67.0,29.90,WNW,292,0.0,0.0,97,0.00,,,0.24,,2013-07-21 05:22:00,
2013-07-21 01:32:00,68.0,67.0,29.90,WNW,292,0.0,0.0,97,0.00,,,0.24,,2013-07-21 05:32:00,
2013-07-21 01:42:00,68.0,67.0,29.90,WNW,292,0.0,0.0,97,0.00,,,0.24,,2013-07-21 05:42:00,
2013-07-21 01:52:00,68.0,67.0,29.90,WNW,292,0.0,0.0,97,0.00,,,0.24,,2013-07-21 05:52:00,
2013-07-21 02:01:00,68.0,67.0,29.90,WNW,292,0.0,0.0,97,0.00,,,0.24,,2013-07-21 06:01:00,
2013-07-21 02:32:00,69.0,68.0,29.90,WNW,292,0.0,0.0,97,0.00,,,0.24,,2013-07-21 06:32:00,
2013-07-21 02:43:00,69.0,68.0,29.90,WNW,292,0.0,0.0,97,0.00,,,0.24,,2013-07-21 06:43:00,
2013-07-21 02:53:00,68.0,67.0,29.89,WNW,292,0.0,0.0,97,0.01,,,0.25,,2013-07-21 06:53:00,
2013-07-21 03:01:00,68.0,67.0,29.89,WNW,292,0.0,0.0,97,0.01,,,0.25,,2013-07-21 07:01:00,
2013-07-21 03:11:00,68.0,67.0,29.90,WNW,292,0.0,0.0,97,0.01,,,0.25,,2013-07-21 07:11:00,
2013-07-21 03:22:00,68.0,67.0,29.90,WNW,292,0.0,0.0,97,0.01,,,0.25,,2013-07-21 07:22:00,
2013-07-21 03:32:00,68.0,67.0,29.88,WNW,292,0.0,0.0,97,0.00,,,0.25,,2013-07-21 07:32:00,
2013-07-21 03:43:00,68.0,67.0,29.89,WNW,292,0.0,0.0,97,0.00,,,0.25,,2013-07-21 07:43:00,
2013-07-21 03:52:00,68.0,67.0,29.89,WNW,292,0.0,0.0,97,0.00,,,0.25,,2013-07-21 07:52:00,
2013-07-21 04:02:00,68.0,67.0,29.89,WNW,292,0.0,0.0,97,0.00,,,0.25,,2013-07-21 08:02:00,
2013-07-21 04:11:00,68.0,67.0,29.89,WNW,292,0.0,0.0,97,0.00,,,0.25,,2013-07-21 08:11:00,
2013-07-21 04:22:00,68.0,67.0,29.89,WNW,292,0.0,0.0,97,0.00,,,0.25,,2013-07-21 08:22:00,
2013-07-21 04:31:00,68.0,67.0,29.89,WNW,292,0.0,0.0,97,0.00,,,0.25,,2013-07-21 08:31:00,
2013-07-21 04:33:00,68.0,67.0,29.89,WNW,292,0.0,0.0,97,0.00,,,0.25,,2013-07-21 08:33:00,
2013-07-21 04:43:00,68.0,67.0,29.89,WNW,292,0.0,0.0,97,0.00,,,0.25,,2013-07-21 08:43:00,
2013-07-21 04:52:00,68.0,67.0,29.89,WNW,292,0.0,0.0,97,0.00,,,0.25,,2013-07-21 08:52:00,
2013-07-21 05:02:00,68.0,67.0,29.89,WNW,292,0.0,0.0,97,0.00,,,0.25,,2013-07-21 09:02:00,
2013-07-21 05:12:00,68.0,67.0,29.89,WNW,292,0.0,0.0,97,0.00,,,0.25,,2013-07-21 09:12:00,
2013-07-21 05:22:00,68.0,67.0,29.89,WNW,292,0.0,0.0,97,0.00,,,0.25,,2013-07-21 09:22:00,
2013-07-21 05:42:00,68.0,67.0,29.90,WNW,292,0.0,0.0,97,0.00,,,0.25,,2013-07-21 09:42:00,
2013-07-21 05:52:00,67.0,66.0,29.90,WNW,292,0.0,0.0,97,0.00,,,0.25,,2013-07-21 09:52:00,
2013-07-21 06:02:00,67.0,66.0,29.90,WNW,292,0.0,0.0,97,0.00,,,0.25,,2013-07-21 10:02:00,
2013-07-21 06:11:00,67.0,66.0,29.90,WNW,292,0.0,0.0,97,0.00,,,0.25,,2013-07-21 10:11:00,
2013-07-21 06:22:00,67.0,66.0,29.90,WNW,292,0.0,0.0,97,0.00,,,0.25,,2013-07-21 10:22:00,
2013-07-21 06:32:00,67.0,66.0,29.90,WNW,292,0.0,0.0,97,0.00,,,0.25,,2013-07-21 10:32:00,
2013-07-21 06:43:00,67.0,66.0,29.90,WNW,292,0.0,0.0,97,0.00,,,0.25,,2013-07-21 10:43:00,
2013-07-21 06:52:00,66.0,65.0,29.91,WNW,291,0.0,0.0,97,0.00,,,0.25,,2013-07-21 10:52:00,
2013-07-21 07:02:00,66.0,65.0,29.91,WNW,291,0.0,0.0,97,0.00,,,0.25,,2013-07-21 11:02:00,
2013-07-21 07:12:00,66.0,65.0,29.91,WNW,291,0.0,0.0,97,0.00,,,0.25,,2013-07-21 11:12:00,
2013-07-21 07:22:00,66.0,65.0,29.91,WNW,291,0.0,0.0,97,0.00,,,0.25,,2013-07-21 11:22:00,
2013-07-21 07:33:00,66.0,65.0,29.91,WNW,292,0.0,0.0,97,0.00,,,0.25,,2013-07-21 11:33:00,
2013-07-21 07:43:00,66.0,65.0,29.91,WNW,292,0.0,0.0,97,0.00,,,0.25,,2013-07-21 11:43:00,
2013-07-21 07:52:00,66.0,65.0,29.91,WNW,292,0.0,0.0,97,0.00,,,0.25,,2013-07-21 11:52:00,
2013-07-21 08:01:00,67.0,66.0,29.92,WNW,292,0.0,0.0,98,0.00,,,0.25,,2013-07-21 12:01:00,
2013-07-21 08:11:00,67.0,66.0,29.92,WNW,292,0.0,0.0,98,0.00,,,0.25,,2013-07-21 12:11:00,
2013-07-21 08:22:00,67.0,66.0,29.92,WNW,292,0.0,0.0,98,0.00,,,0.25,,2013-07-21 12:22:00,
2013-07-21 08:32:00,67.0,66.0,29.93,WNW,292,0.0,0.0,98,0.00,,,0.25,,2013-07-21 12:32:00,
2013-07-21 08:43:00,68.0,67.0,29.93,WNW,292,0.0,0.0,98,0.00,,,0.25,,2013-07-21 12:43:00,
2013-07-21 08:53:00,68.0,67.0,29.93,WNW,292,0.0,0.0,98,0.00,,,0.25,,2013-07-21 12:53:00,
2013-07-21 09:01:00,68.0,67.0,29.93,WNW,292,0.0,0.0,98,0.00,,,0.25,,2013-07-21 13:01:00,
2013-07-21 09:12:00,68.0,67.0,29.93,WNW,292,0.0,0.0,98,0.00,,,0.25,,2013-07-21 13:12:00,
2013-07-21 09:22:00,69.0,68.0,29.93,WNW,292,0.0,0.0,98,0.00,,,0.25,,2013-07-21 13:22:00,
2013-07-21 09:32:00,69.0,68.0,29.93,WNW,292,0.0,0.0,98,0.00,,,0.25,,2013-07-21 13:32:00,
2013-07-21 09:43:00,70.0,69.0,29.93,WNW,292,0.0,0.0,98,0.00,,,0.25,,2013-07-21 13:43:00,
2013-07-21 09:53:00,70.0,69.0,29.93,WNW,292,0.0,0.0,98,0.00,,,0.25,,2013-07-21 13:53:00,
2013-07-21 10:01:00,70.0,69.0,29.93,WNW,291,0.0,0.0,98,0.00,,,0.25,,2013-07-21 14:01:00,
2013-07-21 10:12:00,70.0,69.0,29.93,WNW,292,0.0,0.0,98,0.00,,,0.25,,2013-07-21 14:12:00,
2013-07-21 10:22:00,70.0,69.0,29.93,WNW,292,0.0,0.0,98,0.00,,,0.25,,2013-07-21 14:22:00,
2013-07-21 10:32:00,70.0,69.0,29.93,WNW,292,0.0,0.0,98,0.00,,,0.25,,2013-07-21 14:32:00,
2013-07-21 10:43:00,71.0,70.0,29.94,WNW,292,0.0,0.0,97,0.00,,,0.25,,2013-07-21 14:43:00,
2013-07-21 10:53:00,72.0,71.0,29.93,WNW,291,0.0,0.0,96,0.00,,,0.25,,2013-07-21 14:53:00,
2013-07-21 11:02:00,72.0,71.0,29.93,WNW,291,0.0,0.0,96,0.00,,,0.25,,2013-07-21 15:02:00,
2013-07-21 11:11:00,73.0,71.0,29.93,WNW,292,0.0,0.0,93,0.00,,,0.25,,2013-07-21 15:11:00,
2013-07-21 11:22:00,73.0,71.0,29.93,WNW,292,0.0,0.0,93,0.00,,,0.25,,2013-07-21 15:22:00,
2013-07-21 11:32:00,75.0,70.0,29.93,WNW,291,0.0,0.0,85,0.00,,,0.25,,2013-07-21 15:32:00,
2013-07-21 11:43:00,75.0,70.0,29.93,WNW,291,0.0,0.0,85,0.00,,,0.25,,2013-07-21 15:43:00,
2013-07-21 11:53:00,75.0,70.0,29.93,WNW,291,0.0,0.0,85,0.00,,,0.25,,2013-07-21 15:53:00,
2013-07-21 12:01:00,78.0,73.0,29.94,WNW,291,0.0,0.0,85,0.00,,,0.25,,2013-07-21 16:01:00,
2013-07-21 12:11:00,78.0,72.0,29.94,WNW,291,0.0,0.0,81,0.00,,,0.25,,2013-07-21 16:11:00,
2013-07-21 12:22:00,78.0,72.0,29.94,WNW,291,0.0,0.0,81,0.00,,,0.25,,2013-07-21 16:22:00,
2013-07-21 12:32:00,80.0,73.0,29.94,SSW,195,0.0,0.0,79,0.00,,,0.25,,2013-07-21 16:32:00,
2013-07-21 12:43:00,80.0,73.0,29.94,SSW,195,0.0,0.0,79,0.00,,,0.25,,2013-07-21 16:43:00,
2013-07-21 12:52:00,80.0,73.0,29.94,SSW,195,0.0,0.0,79,0.00,,,0.25,,2013-07-21 16:52:00,
2013-07-21 13:02:00,80.0,73.0,29.94,SSW,195,0.0,0.0,79,0.00,,,0.25,,2013-07-21 17:02:00,
2013-07-21 13:22:00,85.0,74.0,29.93,SSE,156,0.0,0.0,69,0.00,,,0.25,,2013-07-21 17:22:00,
2013-07-21 13:33:00,85.0,74.0,29.93,SSE,156,0.0,0.0,69,0.00,,,0.25,,2013-07-21 17:33:00,
2013-07-21 13:43:00,86.0,75.0,29.93,South,185,0.0,0.0,69,0.00,,,0.25,,2013-07-21 17:43:00,
2013-07-21 13:53:00,87.0,75.0,29.92,WNW,283,0.0,0.0,67,0.00,,,0.25,,2013-07-21 17:53:00,
2013-07-21 14:01:00,87.0,74.0,29.92,West,269,0.0,0.0,66,0.00,,,0.25,,2013-07-21 18:01:00,
2013-07-21 14:11:00,87.0,74.0,29.92,West,269,0.0,0.0,66,0.00,,,0.25,,2013-07-21 18:11:00,
2013-07-21 14:22:00,87.0,74.0,29.92,West,269,0.0,0.0,66,0.00,,,0.25,,2013-07-21 18:22:00,
2013-07-21 14:32:00,89.0,74.0,29.91,SSE,150,0.0,0.0,61,0.00,,,0.25,,2013-07-21 18:32:00,
2013-07-21 14:43:00,89.0,75.0,29.91,SW,220,0.0,0.0,63,0.00,,,0.25,,2013-07-21 18:43:00,
2013-07-21 14:52:00,89.0,75.0,29.90,SSE,162,0.0,0.0,63,0.00,,,0.25,,2013-07-21 18:52:00,
2013-07-21 15:01:00,90.0,75.0,29.90,West,270,0.0,0.0,61,0.00,,,0.25,,2013-07-21 19:01:00,
2013-07-21 15:11:00,90.0,74.0,29.90,WSW,256,0.0,0.0,59,0.00,,,0.25,,2013-07-21 19:11:00,
2013-07-21 15:22:00,90.0,74.0,29.90,WSW,256,0.0,0.0,59,0.00,,,0.25,,2013-07-21 19:22:00,
2013-07-21 15:32:00,89.0,73.0,29.89,West,274,0.0,0.0,60,0.00,,,0.25,,2013-07-21 19:32:00,
2013-07-21 15:42:00,89.0,74.0,29.88,South,188,0.0,0.0,61,0.00,,,0.25,,2013-07-21 19:42:00,
2013-07-21 15:52:00,88.0,72.0,29.88,ENE,60,0.0,0.0,60,0.00,,,0.25,,2013-07-21 19:52:00,
2013-07-21 16:02:00,87.0,75.0,29.88,ENE,62,0.0,0.0,67,0.00,,,0.25,,2013-07-21 20:02:00,
2013-07-21 16:12:00,87.0,74.0,29.88,South,172,0.0,0.0,65,0.00,,,0.25,,2013-07-21 20:12:00,
2013-07-21 16:22:00,88.0,73.0,29.87,SSW,199,0.0,0.0,62,0.00,,,0.25,,2013-07-21 20:22:00,
2013-07-21 16:32:00,88.0,73.0,29.87,SSW,199,0.0,0.0,62,0.00,,,0.25,,2013-07-21 20:32:00,
2013-07-21 16:43:00,88.0,73.0,29.87,SSW,199,0.0,0.0,62,0.00,,,0.25,,2013-07-21 20:43:00,
2013-07-21 16:52:00,88.0,73.0,29.87,SSW,199,0.0,0.0,62,0.00,,,0.25,,2013-07-21 20:52:00,
2013-07-21 17:01:00,88.0,74.0,29.87,South,185,0.0,0.0,63,0.00,,,0.25,,2013-07-21 21:01:00,
2013-07-21 17:11:00,88.0,74.0,29.87,South,185,0.0,0.0,63,0.00,,,0.25,,2013-07-21 21:11:00,
2013-07-21 17:22:00,89.0,75.0,29.87,South,186,0.0,0.0,63,0.00,,,0.25,,2013-07-21 21:22:00,
2013-07-21 17:32:00,89.0,72.0,29.86,South,185,0.0,0.0,57,0.00,,,0.25,,2013-07-21 21:32:00,
2013-07-21 17:43:00,89.0,72.0,29.86,South,185,0.0,0.0,57,0.00,,,0.25,,2013-07-21 21:43:00,
2013-07-21 17:52:00,89.0,72.0,29.86,South,185,0.0,0.0,57,0.00,,,0.25,,2013-07-21 21:52:00,
2013-07-21 18:01:00,86.0,73.0,29.85,South,185,0.0,0.0,66,0.00,,,0.25,,2013-07-21 22:01:00,
2013-07-21 18:11:00,86.0,73.0,29.85,South,185,0.0,0.0,66,0.00,,,0.25,,2013-07-21 22:11:00,
2013-07-21 18:22:00,86.0,73.0,29.85,South,185,0.0,0.0,66,0.00,,,0.25,,2013-07-21 22:22:00,
2013-07-21 18:32:00,87.0,73.0,29.85,South,186,0.0,0.0,64,0.00,,,0.25,,2013-07-21 22:32:00,
2013-07-21 18:43:00,87.0,73.0,29.85,South,186,0.0,0.0,64,0.00,,,0.25,,2013-07-21 22:43:00,
2013-07-21 18:52:00,87.0,73.0,29.85,South,186,0.0,0.0,64,0.00,,,0.25,,2013-07-21 22:52:00,
2013-07-21 19:02:00,87.0,75.0,29.84,South,186,0.0,0.0,67,0.00,,,0.25,,2013-07-21 23:02:00,
2013-07-21 19:11:00,87.0,75.0,29.84,South,186,0.0,0.0,67,0.00,,,0.25,,2013-07-21 23:11:00,
2013-07-21 19:22:00,87.0,75.0,29.84,South,186,0.0,0.0,67,0.00,,,0.25,,2013-07-21 23:22:00,
2013-07-21 19:32:00,85.0,75.0,29.83,South,187,0.0,0.0,72,0.00,,,0.21,,2013-07-21 23:32:00,
2013-07-21 19:42:00,84.0,75.0,29.83,South,187,0.0,0.0,74,0.00,,,0.21,,2013-07-21 23:42:00,
2013-07-21 19:53:00,82.0,74.0,29.83,South,187,0.0,0.0,78,0.00,,,0.21,,2013-07-21 23:53:00,
2013-07-21 20:01:00,82.0,75.0,29.83,South,187,0.0,0.0,79,0.00,,,0.21,,2013-07-22 00:01:00,
2013-07-21 20:11:00,82.0,75.0,29.83,South,187,0.0,0.0,79,0.00,,,0.21,,2013-07-22 00:11:00,
2013-07-21 20:22:00,82.0,75.0,29.83,South,187,0.0,0.0,80,0.00,,,0.21,,2013-07-22 00:22:00,
2013-07-21 20:32:00,82.0,75.0,29.83,South,187,0.0,0.0,80,0.00,,,0.15,,2013-07-22 00:32:00,
2013-07-21 20:42:00,81.0,75.0,29.84,South,187,0.0,0.0,82,0.00,,,0.15,,2013-07-22 00:42:00,
2013-07-21 20:53:00,81.0,75.0,29.83,South,187,0.0,0.0,83,0.00,,,0.15,,2013-07-22 00:53:00,
2013-07-21 21:02:00,81.0,75.0,29.84,South,186,0.0,0.0,83,0.00,,,0.15,,2013-07-22 01:02:00,
2013-07-21 21:11:00,80.0,75.0,29.84,South,187,0.0,0.0,84,0.00,,,0.15,,2013-07-22 01:11:00,
2013-07-21 21:22:00,80.0,75.0,29.83,South,187,0.0,0.0,85,0.00,,,0.15,,2013-07-22 01:22:00,
2013-07-21 21:32:00,80.0,75.0,29.84,South,187,0.0,0.0,86,0.00,,,0.06,,2013-07-22 01:32:00,
2013-07-21 21:42:00,80.0,75.0,29.84,South,187,0.0,0.0,86,0.00,,,0.06,,2013-07-22 01:42:00,
2013-07-21 21:52:00,80.0,75.0,29.84,South,187,0.0,0.0,86,0.00,,,0.06,,2013-07-22 01:52:00,
2013-07-21 22:02:00,78.0,74.0,29.84,South,187,0.0,0.0,89,0.00,,,0.06,,2013-07-22 02:02:00,
2013-07-21 22:11:00,78.0,74.0,29.84,South,187,0.0,0.0,89,0.00,,,0.06,,2013-07-22 02:11:00,
2013-07-21 22:22:00,78.0,74.0,29.84,South,187,0.0,0.0,89,0.00,,,0.06,,2013-07-22 02:22:00,
2013-07-21 22:32:00,78.0,74.0,29.85,South,187,0.0,0.0,89,0.00,,,0.01,,2013-07-22 02:32:00,
2013-07-21 22:43:00,78.0,75.0,29.85,West,259,0.0,0.0,90,0.00,,,0.01,,2013-07-22 02:43:00,
2013-07-21 22:52:00,77.0,73.0,29.86,West,261,0.0,0.0,88,0.00,,,0.01,,2013-07-22 02:52:00,
2013-07-21 23:01:00,77.0,73.0,29.86,West,260,0.0,0.0,87,0.00,,,0.01,,2013-07-22 03:01:00,
2013-07-21 23:11:00,77.0,72.0,29.87,West,267,0.0,0.0,86,0.00,,,0.01,,2013-07-22 03:11:00,
2013-07-21 23:12:00,77.0,73.0,29.86,West,266,0.0,0.0,87,0.00,,,0.01,,2013-07-22 03:12:00,
2013-07-21 23:22:00,77.0,72.0,29.87,West,266,0.0,0.0,85,0.00,,,0.01,,2013-07-22 03:22:00,
2013-07-21 23:33:00,77.0,72.0,29.87,West,267,0.0,0.0,86,0.00,,,0.01,,2013-07-22 03:33:00,
2013-07-21 23:43:00,77.0,72.0,29.87,West,267,0.0,0.0,86,0.00,,,0.01,,2013-07-22 03:43:00,
2013-07-21 23:53:00,77.0,72.0,29.87,West,267,0.0,0.0,86,0.00,,,0.01,,2013-07-22 03:53:00,